sensor_id;sensor_type;location;lat;lon;timestamp;P1;durP1;ratioP1;P2;durP2;ratioP2
79412;SDS011;68863;49.528;11.010;2024-01-15T00:00:00;20.15;;;5.75;;
79412;SDS011;68863;49.528;11.010;2024-01-15T00:01:00;14.90;;;4.10;;
79412;SDS011;68863;49.528;11.010;2024-01-15T00:02:01;17.08;;;4.28;;
79412;SDS011;68863;49.528;11.010;2024-01-15T00:03:01;19.17;;;6.18;;
79412;SDS011;68863;49.528;11.010;2024-01-15T00:04:01;15.43;;;5.05;;
79412;SDS011;68863;49.528;11.010;2024-01-15T00:05:02;17.52;;;4.95;;
79412;SDS011;68863;49.528;11.010;2024-01-15T00:06:03;21.95;;;5.00;;
79412;SDS011;68863;49.528;11.010;2024-01-15T00:07:04;20.73;;;5.32;;
79412;SDS011;68863;49.528;11.010;2024-01-15T00:08:05;16.65;;;5.78;;
79412;SDS011;68863;49.528;11.010;2024-01-15T00:09:05;19.48;;;6.03;;
79412;SDS011;68863;49.528;11.010;2024-01-15T00:10:06;18.98;;;5.18;;
79412;SDS011;68863;49.528;11.010;2024-01-15T00:11:07;15.93;;;5.55;;
79412;SDS011;68863;49.528;11.010;2024-01-15T00:12:07;24.88;;;4.85;;
79412;SDS011;68863;49.528;11.010;2024-01-15T00:13:08;23.08;;;5.22;;
79412;SDS011;68863;49.528;11.010;2024-01-15T00:14:08;22.08;;;5.70;;
79412;SDS011;68863;49.528;11.010;2024-01-15T00:15:09;16.40;;;5.25;;
79412;SDS011;68863;49.528;11.010;2024-01-15T00:16:09;18.85;;;5.25;;
79412;SDS011;68863;49.528;11.010;2024-01-15T00:17:10;23.35;;;5.93;;
79412;SDS011;68863;49.528;11.010;2024-01-15T00:18:10;22.27;;;4.97;;
79412;SDS011;68863;49.528;11.010;2024-01-15T00:19:11;17.75;;;5.47;;
79412;SDS011;68863;49.528;11.010;2024-01-15T00:20:11;17.65;;;4.53;;
79412;SDS011;68863;49.528;11.010;2024-01-15T00:21:12;20.52;;;5.55;;
79412;SDS011;68863;49.528;11.010;2024-01-15T00:22:12;19.17;;;5.70;;
79412;SDS011;68863;49.528;11.010;2024-01-15T00:23:12;23.45;;;5.40;;
79412;SDS011;68863;49.528;11.010;2024-01-15T00:24:13;19.52;;;4.97;;
79412;SDS011;68863;49.528;11.010;2024-01-15T00:25:13;21.88;;;5.90;;
79412;SDS011;68863;49.528;11.010;2024-01-15T00:26:14;17.27;;;6.07;;
79412;SDS011;68863;49.528;11.010;2024-01-15T00:27:15;22.70;;;5.47;;
79412;SDS011;68863;49.528;11.010;2024-01-15T00:28:15;15.95;;;5.10;;
79412;SDS011;68863;49.528;11.010;2024-01-15T00:29:16;21.58;;;5.72;;
79412;SDS011;68863;49.528;11.010;2024-01-15T00:30:16;19.48;;;5.60;;
79412;SDS011;68863;49.528;11.010;2024-01-15T00:31:17;19.20;;;5.07;;
79412;SDS011;68863;49.528;11.010;2024-01-15T00:32:18;16.77;;;5.32;;
79412;SDS011;68863;49.528;11.010;2024-01-15T00:33:18;23.83;;;6.55;;
79412;SDS011;68863;49.528;11.010;2024-01-15T00:34:18;19.95;;;5.18;;
79412;SDS011;68863;49.528;11.010;2024-01-15T00:35:19;19.83;;;5.95;;
79412;SDS011;68863;49.528;11.010;2024-01-15T00:36:19;18.27;;;4.45;;
79412;SDS011;68863;49.528;11.010;2024-01-15T00:37:19;17.88;;;4.95;;
79412;SDS011;68863;49.528;11.010;2024-01-15T00:38:20;17.55;;;4.00;;
79412;SDS011;68863;49.528;11.010;2024-01-15T00:39:20;21.02;;;7.07;;
79412;SDS011;68863;49.528;11.010;2024-01-15T00:40:20;20.65;;;5.05;;
79412;SDS011;68863;49.528;11.010;2024-01-15T00:41:21;22.75;;;5.05;;
79412;SDS011;68863;49.528;11.010;2024-01-15T00:42:21;18.70;;;5.15;;
79412;SDS011;68863;49.528;11.010;2024-01-15T00:43:22;22.92;;;6.00;;
79412;SDS011;68863;49.528;11.010;2024-01-15T00:44:22;21.00;;;5.72;;
79412;SDS011;68863;49.528;11.010;2024-01-15T00:45:22;20.10;;;4.80;;
79412;SDS011;68863;49.528;11.010;2024-01-15T00:46:23;22.15;;;5.78;;
79412;SDS011;68863;49.528;11.010;2024-01-15T00:47:23;20.75;;;6.38;;
79412;SDS011;68863;49.528;11.010;2024-01-15T00:48:23;18.00;;;5.55;;
79412;SDS011;68863;49.528;11.010;2024-01-15T00:49:24;22.42;;;5.85;;
79412;SDS011;68863;49.528;11.010;2024-01-15T00:50:24;21.40;;;5.35;;
79412;SDS011;68863;49.528;11.010;2024-01-15T00:51:25;22.05;;;5.18;;
79412;SDS011;68863;49.528;11.010;2024-01-15T00:52:25;16.63;;;5.82;;
79412;SDS011;68863;49.528;11.010;2024-01-15T00:53:25;15.43;;;5.07;;
79412;SDS011;68863;49.528;11.010;2024-01-15T00:54:26;17.77;;;5.93;;
79412;SDS011;68863;49.528;11.010;2024-01-15T00:55:28;18.27;;;5.13;;
79412;SDS011;68863;49.528;11.010;2024-01-15T00:56:28;22.63;;;6.35;;
79412;SDS011;68863;49.528;11.010;2024-01-15T00:57:29;22.00;;;5.93;;
79412;SDS011;68863;49.528;11.010;2024-01-15T00:58:29;17.42;;;5.88;;
79412;SDS011;68863;49.528;11.010;2024-01-15T00:59:29;17.75;;;5.70;;
79412;SDS011;68863;49.528;11.010;2024-01-15T01:00:30;19.27;;;5.32;;
79412;SDS011;68863;49.528;11.010;2024-01-15T01:01:30;18.85;;;5.63;;
79412;SDS011;68863;49.528;11.010;2024-01-15T01:02:31;20.63;;;5.45;;
79412;SDS011;68863;49.528;11.010;2024-01-15T01:03:31;21.25;;;5.00;;
79412;SDS011;68863;49.528;11.010;2024-01-15T01:04:32;16.25;;;5.07;;
79412;SDS011;68863;49.528;11.010;2024-01-15T01:05:33;22.90;;;5.50;;
79412;SDS011;68863;49.528;11.010;2024-01-15T01:06:33;19.92;;;4.90;;
79412;SDS011;68863;49.528;11.010;2024-01-15T01:07:34;25.40;;;6.65;;
79412;SDS011;68863;49.528;11.010;2024-01-15T01:08:34;17.55;;;5.45;;
79412;SDS011;68863;49.528;11.010;2024-01-15T01:09:34;17.55;;;4.85;;
79412;SDS011;68863;49.528;11.010;2024-01-15T01:10:35;18.42;;;5.78;;
79412;SDS011;68863;49.528;11.010;2024-01-15T01:11:35;22.88;;;6.88;;
79412;SDS011;68863;49.528;11.010;2024-01-15T01:12:36;18.13;;;5.40;;
79412;SDS011;68863;49.528;11.010;2024-01-15T01:13:37;21.27;;;6.10;;
79412;SDS011;68863;49.528;11.010;2024-01-15T01:14:37;14.40;;;5.13;;
79412;SDS011;68863;49.528;11.010;2024-01-15T01:15:37;22.95;;;5.65;;
79412;SDS011;68863;49.528;11.010;2024-01-15T01:16:38;16.60;;;5.43;;
79412;SDS011;68863;49.528;11.010;2024-01-15T01:17:38;20.48;;;6.32;;
79412;SDS011;68863;49.528;11.010;2024-01-15T01:18:39;18.52;;;5.15;;
79412;SDS011;68863;49.528;11.010;2024-01-15T01:19:39;20.50;;;5.40;;
79412;SDS011;68863;49.528;11.010;2024-01-15T01:20:39;18.13;;;5.00;;
79412;SDS011;68863;49.528;11.010;2024-01-15T01:21:40;19.80;;;5.88;;
79412;SDS011;68863;49.528;11.010;2024-01-15T01:22:40;19.63;;;5.30;;
79412;SDS011;68863;49.528;11.010;2024-01-15T01:23:41;18.33;;;5.30;;
79412;SDS011;68863;49.528;11.010;2024-01-15T01:24:41;21.70;;;6.05;;
79412;SDS011;68863;49.528;11.010;2024-01-15T01:25:41;16.75;;;5.70;;
79412;SDS011;68863;49.528;11.010;2024-01-15T01:26:42;22.05;;;5.65;;
79412;SDS011;68863;49.528;11.010;2024-01-15T01:27:42;20.08;;;5.40;;
79412;SDS011;68863;49.528;11.010;2024-01-15T01:28:42;22.52;;;6.68;;
79412;SDS011;68863;49.528;11.010;2024-01-15T01:29:43;24.38;;;6.13;;
79412;SDS011;68863;49.528;11.010;2024-01-15T01:30:43;23.48;;;6.55;;
79412;SDS011;68863;49.528;11.010;2024-01-15T01:31:44;24.63;;;6.28;;
79412;SDS011;68863;49.528;11.010;2024-01-15T01:32:45;17.50;;;5.75;;
79412;SDS011;68863;49.528;11.010;2024-01-15T01:33:45;25.27;;;5.60;;
79412;SDS011;68863;49.528;11.010;2024-01-15T01:34:45;20.38;;;6.38;;
79412;SDS011;68863;49.528;11.010;2024-01-15T01:35:46;18.85;;;5.20;;
79412;SDS011;68863;49.528;11.010;2024-01-15T01:36:47;15.90;;;5.60;;
79412;SDS011;68863;49.528;11.010;2024-01-15T01:37:47;18.42;;;5.70;;
79412;SDS011;68863;49.528;11.010;2024-01-15T01:38:48;20.27;;;4.90;;
79412;SDS011;68863;49.528;11.010;2024-01-15T01:39:48;16.45;;;4.88;;
79412;SDS011;68863;49.528;11.010;2024-01-15T01:40:48;16.25;;;4.60;;
79412;SDS011;68863;49.528;11.010;2024-01-15T01:41:49;14.63;;;5.07;;
79412;SDS011;68863;49.528;11.010;2024-01-15T01:42:49;20.52;;;6.32;;
79412;SDS011;68863;49.528;11.010;2024-01-15T01:43:50;21.33;;;5.07;;
79412;SDS011;68863;49.528;11.010;2024-01-15T01:44:50;19.17;;;6.68;;
79412;SDS011;68863;49.528;11.010;2024-01-15T01:45:50;17.75;;;5.07;;
79412;SDS011;68863;49.528;11.010;2024-01-15T01:46:51;26.52;;;7.10;;
79412;SDS011;68863;49.528;11.010;2024-01-15T01:47:51;16.83;;;5.47;;
79412;SDS011;68863;49.528;11.010;2024-01-15T01:48:52;21.23;;;6.88;;
79412;SDS011;68863;49.528;11.010;2024-01-15T01:49:53;23.83;;;5.53;;
79412;SDS011;68863;49.528;11.010;2024-01-15T01:50:54;19.45;;;4.75;;
79412;SDS011;68863;49.528;11.010;2024-01-15T01:51:58;19.83;;;6.28;;
79412;SDS011;68863;49.528;11.010;2024-01-15T01:53:01;22.13;;;6.40;;
79412;SDS011;68863;49.528;11.010;2024-01-15T01:54:04;22.98;;;5.97;;
79412;SDS011;68863;49.528;11.010;2024-01-15T01:55:05;18.67;;;5.78;;
79412;SDS011;68863;49.528;11.010;2024-01-15T01:56:07;17.55;;;6.10;;
79412;SDS011;68863;49.528;11.010;2024-01-15T01:57:07;17.73;;;5.30;;
79412;SDS011;68863;49.528;11.010;2024-01-15T01:58:08;16.70;;;5.00;;
79412;SDS011;68863;49.528;11.010;2024-01-15T01:59:09;18.65;;;6.65;;
79412;SDS011;68863;49.528;11.010;2024-01-15T02:00:11;21.17;;;7.30;;
79412;SDS011;68863;49.528;11.010;2024-01-15T02:01:12;22.88;;;5.95;;
79412;SDS011;68863;49.528;11.010;2024-01-15T02:02:12;15.18;;;5.15;;
79412;SDS011;68863;49.528;11.010;2024-01-15T02:03:13;20.75;;;5.88;;
79412;SDS011;68863;49.528;11.010;2024-01-15T02:04:14;22.67;;;5.68;;
79412;SDS011;68863;49.528;11.010;2024-01-15T02:05:17;22.13;;;5.95;;
79412;SDS011;68863;49.528;11.010;2024-01-15T02:06:19;20.05;;;5.78;;
79412;SDS011;68863;49.528;11.010;2024-01-15T02:07:19;18.30;;;5.80;;
79412;SDS011;68863;49.528;11.010;2024-01-15T02:08:20;24.00;;;6.30;;
79412;SDS011;68863;49.528;11.010;2024-01-15T02:09:21;23.95;;;6.25;;
79412;SDS011;68863;49.528;11.010;2024-01-15T02:10:22;21.98;;;5.05;;
79412;SDS011;68863;49.528;11.010;2024-01-15T02:11:22;21.70;;;5.55;;
79412;SDS011;68863;49.528;11.010;2024-01-15T02:12:22;20.17;;;6.10;;
79412;SDS011;68863;49.528;11.010;2024-01-15T02:13:23;23.92;;;6.18;;
79412;SDS011;68863;49.528;11.010;2024-01-15T02:14:23;21.85;;;5.97;;
79412;SDS011;68863;49.528;11.010;2024-01-15T02:15:24;24.02;;;6.68;;
79412;SDS011;68863;49.528;11.010;2024-01-15T02:16:24;22.23;;;6.35;;
79412;SDS011;68863;49.528;11.010;2024-01-15T02:17:24;18.40;;;5.13;;
79412;SDS011;68863;49.528;11.010;2024-01-15T02:18:25;14.23;;;4.63;;
79412;SDS011;68863;49.528;11.010;2024-01-15T02:19:25;21.02;;;7.43;;
79412;SDS011;68863;49.528;11.010;2024-01-15T02:20:25;19.38;;;7.10;;
79412;SDS011;68863;49.528;11.010;2024-01-15T02:21:26;24.33;;;5.50;;
79412;SDS011;68863;49.528;11.010;2024-01-15T02:22:28;17.05;;;5.13;;
79412;SDS011;68863;49.528;11.010;2024-01-15T02:23:29;21.75;;;6.13;;
79412;SDS011;68863;49.528;11.010;2024-01-15T02:24:29;19.73;;;5.97;;
79412;SDS011;68863;49.528;11.010;2024-01-15T02:25:29;19.15;;;5.75;;
79412;SDS011;68863;49.528;11.010;2024-01-15T02:26:30;18.77;;;5.07;;
79412;SDS011;68863;49.528;11.010;2024-01-15T02:27:30;20.02;;;5.70;;
79412;SDS011;68863;49.528;11.010;2024-01-15T02:28:31;18.83;;;5.60;;
79412;SDS011;68863;49.528;11.010;2024-01-15T02:29:32;19.33;;;6.07;;
79412;SDS011;68863;49.528;11.010;2024-01-15T02:30:34;20.45;;;6.32;;
79412;SDS011;68863;49.528;11.010;2024-01-15T02:31:39;18.80;;;4.57;;
79412;SDS011;68863;49.528;11.010;2024-01-15T02:32:39;19.10;;;4.40;;
79412;SDS011;68863;49.528;11.010;2024-01-15T02:33:39;19.02;;;6.32;;
79412;SDS011;68863;49.528;11.010;2024-01-15T02:34:42;20.17;;;5.03;;
79412;SDS011;68863;49.528;11.010;2024-01-15T02:35:42;18.35;;;4.95;;
79412;SDS011;68863;49.528;11.010;2024-01-15T02:36:42;17.67;;;5.47;;
79412;SDS011;68863;49.528;11.010;2024-01-15T02:37:43;16.75;;;4.80;;
79412;SDS011;68863;49.528;11.010;2024-01-15T02:38:43;19.83;;;5.50;;
79412;SDS011;68863;49.528;11.010;2024-01-15T02:39:43;16.85;;;5.28;;
79412;SDS011;68863;49.528;11.010;2024-01-15T02:40:44;20.45;;;5.30;;
79412;SDS011;68863;49.528;11.010;2024-01-15T02:41:45;19.55;;;4.85;;
79412;SDS011;68863;49.528;11.010;2024-01-15T02:42:45;18.00;;;5.35;;
79412;SDS011;68863;49.528;11.010;2024-01-15T02:43:45;20.95;;;6.07;;
79412;SDS011;68863;49.528;11.010;2024-01-15T02:44:46;17.38;;;5.05;;
79412;SDS011;68863;49.528;11.010;2024-01-15T02:45:46;16.02;;;4.35;;
79412;SDS011;68863;49.528;11.010;2024-01-15T02:46:47;20.13;;;4.90;;
79412;SDS011;68863;49.528;11.010;2024-01-15T02:47:47;13.88;;;4.40;;
79412;SDS011;68863;49.528;11.010;2024-01-15T02:48:47;15.52;;;4.40;;
79412;SDS011;68863;49.528;11.010;2024-01-15T02:49:48;19.60;;;5.05;;
79412;SDS011;68863;49.528;11.010;2024-01-15T02:50:48;19.10;;;5.30;;
79412;SDS011;68863;49.528;11.010;2024-01-15T02:51:48;20.50;;;5.70;;
79412;SDS011;68863;49.528;11.010;2024-01-15T02:52:49;18.55;;;4.82;;
79412;SDS011;68863;49.528;11.010;2024-01-15T02:53:49;13.50;;;5.20;;
79412;SDS011;68863;49.528;11.010;2024-01-15T02:54:50;15.60;;;4.78;;
79412;SDS011;68863;49.528;11.010;2024-01-15T02:55:50;19.20;;;5.80;;
79412;SDS011;68863;49.528;11.010;2024-01-15T02:56:51;17.63;;;4.90;;
79412;SDS011;68863;49.528;11.010;2024-01-15T02:57:51;18.13;;;5.63;;
79412;SDS011;68863;49.528;11.010;2024-01-15T02:58:51;14.35;;;4.80;;
79412;SDS011;68863;49.528;11.010;2024-01-15T02:59:52;16.40;;;5.32;;
79412;SDS011;68863;49.528;11.010;2024-01-15T03:00:52;18.63;;;4.70;;
79412;SDS011;68863;49.528;11.010;2024-01-15T03:01:52;20.42;;;4.90;;
79412;SDS011;68863;49.528;11.010;2024-01-15T03:02:53;17.08;;;4.35;;
79412;SDS011;68863;49.528;11.010;2024-01-15T03:03:53;15.40;;;5.05;;
79412;SDS011;68863;49.528;11.010;2024-01-15T03:04:55;17.95;;;5.80;;
79412;SDS011;68863;49.528;11.010;2024-01-15T03:05:55;18.73;;;4.88;;
79412;SDS011;68863;49.528;11.010;2024-01-15T03:06:55;15.88;;;4.95;;
79412;SDS011;68863;49.528;11.010;2024-01-15T03:07:56;11.88;;;4.40;;
79412;SDS011;68863;49.528;11.010;2024-01-15T03:08:56;15.13;;;4.15;;
79412;SDS011;68863;49.528;11.010;2024-01-15T03:09:56;16.38;;;5.32;;
79412;SDS011;68863;49.528;11.010;2024-01-15T03:10:57;18.35;;;5.63;;
79412;SDS011;68863;49.528;11.010;2024-01-15T03:11:57;15.45;;;5.70;;
79412;SDS011;68863;49.528;11.010;2024-01-15T03:12:58;15.55;;;4.38;;
79412;SDS011;68863;49.528;11.010;2024-01-15T03:13:58;14.05;;;4.72;;
79412;SDS011;68863;49.528;11.010;2024-01-15T03:14:59;11.68;;;4.18;;
79412;SDS011;68863;49.528;11.010;2024-01-15T03:15:59;17.55;;;4.68;;
79412;SDS011;68863;49.528;11.010;2024-01-15T03:17:00;15.02;;;4.38;;
79412;SDS011;68863;49.528;11.010;2024-01-15T03:18:00;20.05;;;5.47;;
79412;SDS011;68863;49.528;11.010;2024-01-15T03:19:01;14.70;;;4.75;;
79412;SDS011;68863;49.528;11.010;2024-01-15T03:20:01;15.40;;;4.50;;
79412;SDS011;68863;49.528;11.010;2024-01-15T03:21:03;17.45;;;4.88;;
79412;SDS011;68863;49.528;11.010;2024-01-15T03:22:05;16.35;;;4.05;;
79412;SDS011;68863;49.528;11.010;2024-01-15T03:23:08;15.77;;;4.68;;
79412;SDS011;68863;49.528;11.010;2024-01-15T03:24:08;13.75;;;4.70;;
79412;SDS011;68863;49.528;11.010;2024-01-15T03:25:08;19.88;;;5.22;;
79412;SDS011;68863;49.528;11.010;2024-01-15T03:26:09;12.05;;;3.28;;
79412;SDS011;68863;49.528;11.010;2024-01-15T03:27:09;17.92;;;5.07;;
79412;SDS011;68863;49.528;11.010;2024-01-15T03:28:10;15.13;;;4.75;;
79412;SDS011;68863;49.528;11.010;2024-01-15T03:29:10;14.75;;;4.50;;
79412;SDS011;68863;49.528;11.010;2024-01-15T03:30:10;15.65;;;4.10;;
79412;SDS011;68863;49.528;11.010;2024-01-15T03:31:11;14.95;;;4.00;;
79412;SDS011;68863;49.528;11.010;2024-01-15T03:32:12;14.43;;;5.18;;
79412;SDS011;68863;49.528;11.010;2024-01-15T03:33:12;15.13;;;4.20;;
79412;SDS011;68863;49.528;11.010;2024-01-15T03:34:13;14.82;;;4.32;;
79412;SDS011;68863;49.528;11.010;2024-01-15T03:35:13;11.05;;;2.97;;
79412;SDS011;68863;49.528;11.010;2024-01-15T03:36:14;11.82;;;4.07;;
79412;SDS011;68863;49.528;11.010;2024-01-15T03:37:14;11.80;;;3.85;;
79412;SDS011;68863;49.528;11.010;2024-01-15T03:38:15;13.75;;;3.95;;
79412;SDS011;68863;49.528;11.010;2024-01-15T03:39:15;14.63;;;4.80;;
79412;SDS011;68863;49.528;11.010;2024-01-15T03:40:15;13.77;;;3.97;;
79412;SDS011;68863;49.528;11.010;2024-01-15T03:41:16;12.02;;;3.83;;
79412;SDS011;68863;49.528;11.010;2024-01-15T03:42:16;14.60;;;4.00;;
79412;SDS011;68863;49.528;11.010;2024-01-15T03:43:16;11.32;;;3.40;;
79412;SDS011;68863;49.528;11.010;2024-01-15T03:44:17;13.32;;;5.00;;
79412;SDS011;68863;49.528;11.010;2024-01-15T03:45:17;13.98;;;4.13;;
79412;SDS011;68863;49.528;11.010;2024-01-15T03:46:18;14.77;;;3.95;;
79412;SDS011;68863;49.528;11.010;2024-01-15T03:47:18;16.52;;;4.35;;
79412;SDS011;68863;49.528;11.010;2024-01-15T03:48:18;15.07;;;4.50;;
79412;SDS011;68863;49.528;11.010;2024-01-15T03:49:19;18.15;;;3.80;;
79412;SDS011;68863;49.528;11.010;2024-01-15T03:50:19;14.05;;;4.50;;
79412;SDS011;68863;49.528;11.010;2024-01-15T03:51:19;14.18;;;4.07;;
79412;SDS011;68863;49.528;11.010;2024-01-15T03:52:20;13.02;;;3.30;;
79412;SDS011;68863;49.528;11.010;2024-01-15T03:53:20;15.52;;;3.67;;
79412;SDS011;68863;49.528;11.010;2024-01-15T03:54:21;12.85;;;3.60;;
79412;SDS011;68863;49.528;11.010;2024-01-15T03:55:21;13.88;;;4.22;;
79412;SDS011;68863;49.528;11.010;2024-01-15T03:56:21;13.77;;;3.58;;
79412;SDS011;68863;49.528;11.010;2024-01-15T03:57:21;11.07;;;3.30;;
79412;SDS011;68863;49.528;11.010;2024-01-15T03:58:22;13.77;;;3.22;;
79412;SDS011;68863;49.528;11.010;2024-01-15T03:59:22;16.40;;;4.15;;
79412;SDS011;68863;49.528;11.010;2024-01-15T04:00:22;16.75;;;4.13;;
79412;SDS011;68863;49.528;11.010;2024-01-15T04:01:23;14.57;;;4.32;;
79412;SDS011;68863;49.528;11.010;2024-01-15T04:02:23;12.55;;;3.40;;
79412;SDS011;68863;49.528;11.010;2024-01-15T04:03:23;14.43;;;3.92;;
79412;SDS011;68863;49.528;11.010;2024-01-15T04:04:24;17.17;;;4.43;;
79412;SDS011;68863;49.528;11.010;2024-01-15T04:05:24;14.95;;;3.95;;
79412;SDS011;68863;49.528;11.010;2024-01-15T04:06:25;12.93;;;3.13;;
79412;SDS011;68863;49.528;11.010;2024-01-15T04:07:25;14.55;;;4.50;;
79412;SDS011;68863;49.528;11.010;2024-01-15T04:08:25;11.68;;;3.65;;
79412;SDS011;68863;49.528;11.010;2024-01-15T04:09:26;12.05;;;3.42;;
79412;SDS011;68863;49.528;11.010;2024-01-15T04:10:26;15.02;;;3.22;;
79412;SDS011;68863;49.528;11.010;2024-01-15T04:11:26;12.77;;;3.38;;
79412;SDS011;68863;49.528;11.010;2024-01-15T04:12:27;18.90;;;3.92;;
79412;SDS011;68863;49.528;11.010;2024-01-15T04:13:27;13.60;;;3.80;;
79412;SDS011;68863;49.528;11.010;2024-01-15T04:14:27;12.60;;;2.90;;
79412;SDS011;68863;49.528;11.010;2024-01-15T04:15:28;12.93;;;4.68;;
79412;SDS011;68863;49.528;11.010;2024-01-15T04:16:29;14.43;;;4.15;;
79412;SDS011;68863;49.528;11.010;2024-01-15T04:17:29;12.23;;;3.55;;
79412;SDS011;68863;49.528;11.010;2024-01-15T04:18:29;14.85;;;3.78;;
79412;SDS011;68863;49.528;11.010;2024-01-15T04:19:30;15.52;;;3.83;;
79412;SDS011;68863;49.528;11.010;2024-01-15T04:20:30;14.32;;;3.78;;
79412;SDS011;68863;49.528;11.010;2024-01-15T04:21:30;16.10;;;4.32;;
79412;SDS011;68863;49.528;11.010;2024-01-15T04:22:31;12.32;;;3.50;;
79412;SDS011;68863;49.528;11.010;2024-01-15T04:23:32;11.20;;;3.05;;
79412;SDS011;68863;49.528;11.010;2024-01-15T04:24:32;12.52;;;3.95;;
79412;SDS011;68863;49.528;11.010;2024-01-15T04:25:33;11.05;;;3.17;;
79412;SDS011;68863;49.528;11.010;2024-01-15T04:26:33;11.55;;;3.50;;
79412;SDS011;68863;49.528;11.010;2024-01-15T04:27:33;10.15;;;2.78;;
79412;SDS011;68863;49.528;11.010;2024-01-15T04:28:34;9.25;;;3.63;;
79412;SDS011;68863;49.528;11.010;2024-01-15T04:29:34;14.23;;;4.53;;
79412;SDS011;68863;49.528;11.010;2024-01-15T04:31:37;11.45;;;3.08;;
79412;SDS011;68863;49.528;11.010;2024-01-15T04:32:37;7.88;;;2.92;;
79412;SDS011;68863;49.528;11.010;2024-01-15T04:33:38;11.80;;;3.65;;
79412;SDS011;68863;49.528;11.010;2024-01-15T04:34:38;12.02;;;3.17;;
79412;SDS011;68863;49.528;11.010;2024-01-15T04:35:38;11.10;;;3.85;;
79412;SDS011;68863;49.528;11.010;2024-01-15T04:36:39;13.43;;;3.22;;
79412;SDS011;68863;49.528;11.010;2024-01-15T04:37:41;14.52;;;4.22;;
79412;SDS011;68863;49.528;11.010;2024-01-15T04:38:41;9.05;;;2.20;;
79412;SDS011;68863;49.528;11.010;2024-01-15T04:39:42;12.10;;;3.67;;
79412;SDS011;68863;49.528;11.010;2024-01-15T04:40:42;12.18;;;3.95;;
79412;SDS011;68863;49.528;11.010;2024-01-15T04:41:43;11.93;;;3.15;;
79412;SDS011;68863;49.528;11.010;2024-01-15T04:42:43;11.18;;;3.20;;
79412;SDS011;68863;49.528;11.010;2024-01-15T04:43:46;12.07;;;3.10;;
79412;SDS011;68863;49.528;11.010;2024-01-15T04:44:47;12.25;;;3.67;;
79412;SDS011;68863;49.528;11.010;2024-01-15T04:45:47;11.38;;;3.30;;
79412;SDS011;68863;49.528;11.010;2024-01-15T04:46:47;15.05;;;4.13;;
79412;SDS011;68863;49.528;11.010;2024-01-15T04:47:48;12.45;;;3.30;;
79412;SDS011;68863;49.528;11.010;2024-01-15T04:48:49;11.57;;;4.03;;
79412;SDS011;68863;49.528;11.010;2024-01-15T04:49:49;12.90;;;3.50;;
79412;SDS011;68863;49.528;11.010;2024-01-15T04:50:49;14.13;;;4.85;;
79412;SDS011;68863;49.528;11.010;2024-01-15T04:51:50;11.13;;;3.67;;
79412;SDS011;68863;49.528;11.010;2024-01-15T04:52:50;14.32;;;4.47;;
79412;SDS011;68863;49.528;11.010;2024-01-15T04:53:51;12.82;;;4.10;;
79412;SDS011;68863;49.528;11.010;2024-01-15T04:54:51;12.98;;;4.25;;
79412;SDS011;68863;49.528;11.010;2024-01-15T04:55:51;12.70;;;3.40;;
79412;SDS011;68863;49.528;11.010;2024-01-15T04:56:52;7.40;;;2.67;;
79412;SDS011;68863;49.528;11.010;2024-01-15T04:57:52;17.08;;;4.15;;
79412;SDS011;68863;49.528;11.010;2024-01-15T04:58:52;10.68;;;3.70;;
79412;SDS011;68863;49.528;11.010;2024-01-15T04:59:53;12.10;;;3.67;;
79412;SDS011;68863;49.528;11.010;2024-01-15T05:00:53;11.38;;;3.97;;
79412;SDS011;68863;49.528;11.010;2024-01-15T05:01:54;8.93;;;2.85;;
79412;SDS011;68863;49.528;11.010;2024-01-15T05:02:55;12.18;;;3.47;;
79412;SDS011;68863;49.528;11.010;2024-01-15T05:03:56;11.75;;;2.63;;
79412;SDS011;68863;49.528;11.010;2024-01-15T05:04:56;13.55;;;3.58;;
79412;SDS011;68863;49.528;11.010;2024-01-15T05:05:56;14.70;;;4.22;;
79412;SDS011;68863;49.528;11.010;2024-01-15T05:06:57;14.48;;;4.28;;
79412;SDS011;68863;49.528;11.010;2024-01-15T05:07:57;15.13;;;4.60;;
79412;SDS011;68863;49.528;11.010;2024-01-15T05:08:57;15.57;;;3.55;;
79412;SDS011;68863;49.528;11.010;2024-01-15T05:09:58;15.18;;;4.30;;
79412;SDS011;68863;49.528;11.010;2024-01-15T05:10:58;11.40;;;3.20;;
79412;SDS011;68863;49.528;11.010;2024-01-15T05:11:58;9.50;;;4.07;;
79412;SDS011;68863;49.528;11.010;2024-01-15T05:12:59;9.48;;;4.03;;
79412;SDS011;68863;49.528;11.010;2024-01-15T05:13:59;11.98;;;3.92;;
79412;SDS011;68863;49.528;11.010;2024-01-15T05:14:59;12.52;;;3.38;;
79412;SDS011;68863;49.528;11.010;2024-01-15T05:16:00;15.23;;;3.47;;
79412;SDS011;68863;49.528;11.010;2024-01-15T05:17:00;12.20;;;3.92;;
79412;SDS011;68863;49.528;11.010;2024-01-15T05:18:00;12.82;;;3.55;;
79412;SDS011;68863;49.528;11.010;2024-01-15T05:19:01;12.45;;;4.43;;
79412;SDS011;68863;49.528;11.010;2024-01-15T05:20:01;13.82;;;4.30;;
79412;SDS011;68863;49.528;11.010;2024-01-15T05:21:03;13.88;;;3.30;;
79412;SDS011;68863;49.528;11.010;2024-01-15T05:22:04;16.40;;;4.45;;
79412;SDS011;68863;49.528;11.010;2024-01-15T05:23:04;12.00;;;4.25;;
79412;SDS011;68863;49.528;11.010;2024-01-15T05:24:04;14.30;;;4.28;;
79412;SDS011;68863;49.528;11.010;2024-01-15T05:25:05;14.20;;;3.97;;
79412;SDS011;68863;49.528;11.010;2024-01-15T05:26:06;14.52;;;4.05;;
79412;SDS011;68863;49.528;11.010;2024-01-15T05:28:09;10.40;;;3.17;;
79412;SDS011;68863;49.528;11.010;2024-01-15T05:29:09;8.80;;;2.75;;
79412;SDS011;68863;49.528;11.010;2024-01-15T05:30:09;13.70;;;3.08;;
79412;SDS011;68863;49.528;11.010;2024-01-15T05:31:10;11.20;;;2.55;;
79412;SDS011;68863;49.528;11.010;2024-01-15T05:32:11;11.20;;;3.00;;
79412;SDS011;68863;49.528;11.010;2024-01-15T05:33:11;14.13;;;3.58;;
79412;SDS011;68863;49.528;11.010;2024-01-15T05:34:11;14.13;;;3.83;;
79412;SDS011;68863;49.528;11.010;2024-01-15T05:35:12;15.55;;;4.10;;
79412;SDS011;68863;49.528;11.010;2024-01-15T05:36:12;14.52;;;3.92;;
79412;SDS011;68863;49.528;11.010;2024-01-15T05:37:13;14.68;;;4.05;;
79412;SDS011;68863;49.528;11.010;2024-01-15T05:38:13;11.68;;;3.35;;
79412;SDS011;68863;49.528;11.010;2024-01-15T05:39:13;12.73;;;3.92;;
79412;SDS011;68863;49.528;11.010;2024-01-15T05:40:14;11.85;;;3.60;;
79412;SDS011;68863;49.528;11.010;2024-01-15T05:41:14;14.40;;;3.50;;
79412;SDS011;68863;49.528;11.010;2024-01-15T05:42:14;10.40;;;3.05;;
79412;SDS011;68863;49.528;11.010;2024-01-15T05:43:15;14.77;;;3.72;;
79412;SDS011;68863;49.528;11.010;2024-01-15T05:44:15;12.07;;;3.00;;
79412;SDS011;68863;49.528;11.010;2024-01-15T05:45:15;11.00;;;2.72;;
79412;SDS011;68863;49.528;11.010;2024-01-15T05:46:16;10.95;;;2.90;;
79412;SDS011;68863;49.528;11.010;2024-01-15T05:47:16;13.02;;;3.42;;
79412;SDS011;68863;49.528;11.010;2024-01-15T05:48:17;11.73;;;3.65;;
79412;SDS011;68863;49.528;11.010;2024-01-15T05:49:17;11.68;;;3.28;;
79412;SDS011;68863;49.528;11.010;2024-01-15T05:50:18;12.20;;;3.13;;
79412;SDS011;68863;49.528;11.010;2024-01-15T05:51:18;12.27;;;3.45;;
79412;SDS011;68863;49.528;11.010;2024-01-15T05:52:18;7.95;;;2.70;;
79412;SDS011;68863;49.528;11.010;2024-01-15T05:53:20;11.65;;;3.33;;
79412;SDS011;68863;49.528;11.010;2024-01-15T05:54:21;11.82;;;3.17;;
79412;SDS011;68863;49.528;11.010;2024-01-15T05:55:21;11.43;;;3.33;;